Terminal Aerodrome Forecast
Issued by NWS

Home | Current Version | Previous Version | Text Only | Print | Product List | Glossary On
Versions: 1 2 3 4 5 6 7 8 9 10 11 12 13 14 15 16 17 18
000
FTUS45 KTFX 210859 AAA
TAFLWT
TAF AMD
KLWT 210859Z 2109/2206 VRB06KT P6SM SCT005 OVC025
      TEMPO 2109/2112 3SM -SN BR SCT003 OVC010
     FM211200 VRB06KT P6SM SCT010 OVC030
     FM211900 21012KT P6SM SCT050 BKN150=

USA.gov is the U.S. government's official web portal to all federal, state and local government web resources and services.